createdAt,value
2023-02-19T00:17:04.113Z,24.78
2023-02-19T00:18:04.041Z,24.78
2023-02-19T00:19:04.030Z,24.84
2023-02-19T00:20:04.020Z,24.78
2023-02-19T00:21:04.023Z,24.79
2023-02-19T00:22:03.981Z,24.81
2023-02-19T00:23:03.969Z,24.82
2023-02-19T00:24:03.950Z,24.82
2023-02-19T00:25:03.950Z,24.79
2023-02-19T00:26:17.195Z,24.78
2023-02-19T00:28:03.882Z,24.79
2023-02-19T00:29:03.877Z,24.79
2023-02-19T00:30:03.883Z,24.81
2023-02-19T00:31:03.896Z,24.82
2023-02-19T00:32:03.836Z,24.82
2023-02-19T00:33:03.819Z,24.84
2023-02-19T00:34:03.804Z,24.81
2023-02-19T00:35:03.807Z,24.82
2023-02-19T00:36:03.767Z,24.81
2023-02-19T00:37:03.756Z,24.81
2023-02-19T00:38:03.741Z,24.79
2023-02-19T00:39:03.750Z,24.81
2023-02-19T00:40:03.749Z,24.79
2023-02-19T00:41:03.706Z,24.79
2023-02-19T00:42:03.687Z,24.79
2023-02-19T00:43:03.676Z,24.79
2023-02-19T00:44:03.676Z,24.81
2023-02-19T00:45:03.646Z,24.79
2023-02-19T00:46:03.687Z,24.78
2023-02-19T00:47:03.653Z,24.79
2023-02-19T00:48:03.612Z,24.81
2023-02-19T00:49:03.629Z,24.81
2023-02-19T00:50:03.590Z,24.81
2023-02-19T00:51:03.584Z,24.79
2023-02-19T00:52:03.592Z,24.78
2023-02-19T00:53:03.591Z,24.79
2023-02-19T00:54:03.549Z,24.77
2023-02-19T00:55:03.536Z,24.79
2023-02-19T00:56:03.555Z,24.79
2023-02-19T00:57:03.523Z,24.79
2023-02-19T00:58:03.497Z,24.81
2023-02-19T00:59:03.491Z,24.79
2023-02-19T01:01:03.474Z,24.78
2023-02-19T01:02:03.462Z,24.79
2023-02-19T01:03:03.453Z,24.81
2023-02-19T01:04:06.231Z,24.79
2023-02-19T01:05:03.411Z,24.79
2023-02-19T01:06:03.415Z,24.78
2023-02-19T01:07:03.395Z,24.79
2023-02-19T01:08:03.367Z,24.79
2023-02-19T01:09:03.368Z,24.81
2023-02-19T01:10:03.330Z,24.81
2023-02-19T01:11:03.337Z,24.78
2023-02-19T01:12:03.308Z,24.81
2023-02-19T01:13:03.292Z,24.79
2023-02-19T01:14:03.278Z,24.81
2023-02-19T01:15:03.273Z,24.77
2023-02-19T01:16:03.281Z,24.78
2023-02-19T01:17:03.256Z,24.79
2023-02-19T01:18:03.221Z,24.77
2023-02-19T01:19:03.212Z,24.78
2023-02-19T01:20:03.208Z,24.79
2023-02-19T01:21:03.259Z,24.78
2023-02-19T01:22:03.176Z,24.78
2023-02-19T01:23:03.180Z,24.78
2023-02-19T01:24:03.159Z,24.75
2023-02-19T01:25:03.144Z,24.77
2023-02-19T01:26:03.119Z,24.75
2023-02-19T01:27:03.105Z,24.79
2023-02-19T01:28:03.092Z,24.77
2023-02-19T01:29:03.110Z,24.77
2023-02-19T01:30:03.124Z,24.75
2023-02-19T01:31:03.092Z,24.78
2023-02-19T01:32:03.095Z,24.75
2023-02-19T01:33:03.026Z,24.75
2023-02-19T01:34:03.016Z,24.77
2023-02-19T01:35:02.995Z,24.75
2023-02-19T01:36:02.977Z,24.75
2023-02-19T01:37:02.969Z,24.74
2023-02-19T01:38:02.968Z,24.75
2023-02-19T01:39:02.947Z,24.72
2023-02-19T01:40:02.938Z,24.77
2023-02-19T01:41:02.919Z,24.77
2023-02-19T01:42:02.911Z,24.72
2023-02-19T01:43:02.909Z,24.77
2023-02-19T01:44:02.888Z,24.75
2023-02-19T01:45:02.892Z,24.75
2023-02-19T01:46:02.884Z,24.74
2023-02-19T01:47:02.879Z,24.74
2023-02-19T01:48:02.862Z,24.75
2023-02-19T01:49:02.853Z,24.74
2023-02-19T01:50:02.843Z,24.74
2023-02-19T01:51:02.863Z,24.75
2023-02-19T01:52:02.820Z,24.74
2023-02-19T01:53:02.803Z,24.72
2023-02-19T01:54:02.791Z,24.75
2023-02-19T01:55:02.782Z,24.71
2023-02-19T01:56:02.773Z,24.75
2023-02-19T01:57:02.760Z,24.74
2023-02-19T01:59:02.740Z,24.75
2023-02-19T02:00:02.729Z,24.74
2023-02-19T02:01:02.774Z,24.74
2023-02-19T02:02:02.750Z,24.72
2023-02-19T02:03:02.703Z,24.74
2023-02-19T02:04:02.676Z,24.71
2023-02-19T02:05:02.673Z,24.70
2023-02-19T02:06:02.648Z,24.71
2023-02-19T02:07:02.645Z,24.74
2023-02-19T02:08:02.641Z,24.71
2023-02-19T02:09:02.627Z,24.72
2023-02-19T02:10:02.611Z,24.71
2023-02-19T02:11:02.627Z,24.71
2023-02-19T02:12:02.583Z,24.70
2023-02-19T02:13:02.580Z,24.70
2023-02-19T02:14:02.581Z,24.70
2023-02-19T02:15:02.554Z,24.71
2023-02-19T02:16:02.585Z,24.68
2023-02-19T02:17:02.537Z,24.68
2023-02-19T02:18:02.529Z,24.71
2023-02-19T02:19:02.516Z,24.68
2023-02-19T02:20:02.491Z,24.70
2023-02-19T02:21:02.488Z,24.68
2023-02-19T02:22:02.469Z,24.68
2023-02-19T02:23:02.466Z,24.68
2023-02-19T02:24:02.442Z,24.67
2023-02-19T02:25:02.436Z,24.67
2023-02-19T02:26:02.413Z,24.68
2023-02-19T02:27:02.412Z,24.67
2023-02-19T02:28:02.407Z,24.65
2023-02-19T02:29:02.410Z,24.68
2023-02-19T02:30:02.424Z,24.68
2023-02-19T02:31:02.396Z,24.64
2023-02-19T02:32:02.468Z,24.64
2023-02-19T02:33:02.355Z,24.68
2023-02-19T02:34:02.346Z,24.65
2023-02-19T02:35:02.320Z,24.68
2023-02-19T02:36:02.315Z,24.65
2023-02-19T02:37:02.313Z,24.67
2023-02-19T02:38:02.311Z,24.68
2023-02-19T02:39:02.285Z,24.70
2023-02-19T02:40:02.267Z,24.67
2023-02-19T02:41:02.256Z,24.65
2023-02-19T02:42:02.234Z,24.68
2023-02-19T02:43:02.220Z,24.65
2023-02-19T02:44:02.208Z,24.64
2023-02-19T02:45:02.194Z,24.64
2023-02-19T02:46:02.203Z,24.63
2023-02-19T02:47:02.162Z,24.65
2023-02-19T02:48:02.135Z,24.64
2023-02-19T02:49:02.129Z,24.63
2023-02-19T02:50:02.123Z,24.65
2023-02-19T02:51:02.100Z,24.65
2023-02-19T02:52:02.078Z,24.65
2023-02-19T02:53:02.073Z,24.65
2023-02-19T02:54:02.068Z,24.64
2023-02-19T02:55:02.797Z,24.65
2023-02-19T02:56:02.034Z,24.64
2023-02-19T02:57:02.016Z,24.65
2023-02-19T02:58:01.999Z,24.65
2023-02-19T02:59:02.018Z,24.64
2023-02-19T03:00:01.973Z,24.65
2023-02-19T03:01:02.039Z,24.68
2023-02-19T03:02:01.985Z,24.67
2023-02-19T03:03:01.920Z,24.64
2023-02-19T03:04:01.957Z,24.65
2023-02-19T03:05:01.890Z,24.67
2023-02-19T03:06:01.884Z,24.65
2023-02-19T03:07:01.863Z,24.65
2023-02-19T03:08:01.872Z,24.68
2023-02-19T03:09:01.845Z,24.64
2023-02-19T03:10:01.864Z,24.67
2023-02-19T03:11:01.830Z,24.65
2023-02-19T03:12:01.799Z,24.64
2023-02-19T03:13:01.803Z,24.64
2023-02-19T03:14:01.768Z,24.65
2023-02-19T03:15:01.768Z,24.67
2023-02-19T03:16:01.759Z,24.65
2023-02-19T03:17:01.740Z,24.64
2023-02-19T03:18:01.709Z,24.64
2023-02-19T03:19:01.703Z,24.64
2023-02-19T03:20:01.692Z,24.67
2023-02-19T03:21:01.678Z,24.68
2023-02-19T03:22:01.666Z,24.67
2023-02-19T03:23:01.667Z,24.63
2023-02-19T03:24:01.633Z,24.65
2023-02-19T03:25:01.642Z,24.65
2023-02-19T03:26:01.615Z,24.63
2023-02-19T03:27:01.609Z,24.65
2023-02-19T03:28:01.587Z,24.63
2023-02-19T03:29:01.575Z,24.65
2023-02-19T03:30:01.644Z,24.64
2023-02-19T03:31:01.563Z,24.65
2023-02-19T03:32:01.670Z,24.65
2023-02-19T03:33:01.513Z,24.63
2023-02-19T03:34:01.489Z,24.63
2023-02-19T03:35:01.489Z,24.64
2023-02-19T03:36:01.480Z,24.64
2023-02-19T03:37:01.468Z,24.64
2023-02-19T03:38:01.431Z,24.64
2023-02-19T03:39:01.421Z,24.63
2023-02-19T03:40:01.413Z,24.65
2023-02-19T03:41:01.389Z,24.64
2023-02-19T03:42:01.378Z,24.64
2023-02-19T03:43:01.364Z,24.65
2023-02-19T03:44:01.352Z,24.64
2023-02-19T03:45:01.343Z,24.63
2023-02-19T03:46:01.337Z,24.65
2023-02-19T03:47:01.305Z,24.65
2023-02-19T03:48:01.294Z,24.64
2023-02-19T03:49:01.309Z,24.63
2023-02-19T03:50:01.265Z,24.65
2023-02-19T03:51:01.264Z,24.64
2023-02-19T03:52:01.249Z,24.64
2023-02-19T03:53:01.234Z,24.64
2023-02-19T03:54:01.233Z,24.65
2023-02-19T08:36:20.051Z,24.79
2023-02-19T11:06:54.990Z,26.95
2023-02-19T11:07:54.962Z,26.94
2023-02-19T11:08:54.908Z,26.94
2023-02-19T11:09:54.885Z,26.94
2023-02-19T11:10:54.826Z,26.97
2023-02-19T11:11:54.788Z,26.97
2023-02-19T11:12:54.748Z,26.98
2023-02-19T11:13:54.706Z,26.94
2023-02-19T11:14:54.662Z,26.93
2023-02-19T11:15:54.633Z,26.93
2023-02-19T11:16:54.577Z,26.95
2023-02-19T11:17:54.534Z,26.97
2023-02-19T11:18:56.887Z,27.01
2023-02-19T11:19:54.588Z,27.01
2023-02-19T11:20:54.559Z,27.02
2023-02-19T11:21:54.494Z,27.02
2023-02-19T11:22:54.451Z,27.01
2023-02-19T11:23:54.423Z,27.04
2023-02-19T11:24:57.840Z,27.02
2023-02-19T11:25:54.325Z,26.99
2023-02-19T11:26:54.270Z,27.02
2023-02-19T11:27:54.230Z,27.05
2023-02-19T11:28:54.191Z,27.08
2023-02-19T11:29:54.158Z,27.09
2023-02-19T11:30:54.132Z,27.09
2023-02-19T11:31:54.092Z,27.09
2023-02-19T11:32:54.019Z,27.09
2023-02-19T11:33:53.969Z,27.06
2023-02-19T11:34:53.915Z,27.05
2023-02-19T11:35:53.889Z,26.99
2023-02-19T11:36:53.832Z,27.04
2023-02-19T11:37:53.797Z,27.04
2023-02-19T11:38:53.761Z,27.04
2023-02-19T11:39:53.712Z,27.08
2023-02-19T11:40:53.656Z,27.09
2023-02-19T11:41:53.636Z,27.12
2023-02-19T11:42:53.575Z,27.12
2023-02-19T11:43:53.523Z,27.13
2023-02-19T11:44:53.484Z,27.15
2023-02-19T11:45:53.441Z,27.11
2023-02-19T11:46:53.435Z,27.15
2023-02-19T11:47:53.358Z,27.11
2023-02-19T11:48:53.322Z,27.09
2023-02-19T11:49:53.284Z,27.13
2023-02-19T11:50:53.252Z,27.16
2023-02-19T11:51:53.227Z,27.18
2023-02-19T11:52:53.164Z,27.15
2023-02-19T11:53:53.126Z,27.15
2023-02-19T11:54:53.077Z,27.19
2023-02-19T11:55:53.042Z,27.19
2023-02-19T11:56:53.011Z,27.21
2023-02-19T11:57:52.967Z,27.22
2023-02-19T11:58:52.922Z,27.24
2023-02-19T11:59:52.868Z,27.25
2023-02-19T12:00:52.843Z,27.29
2023-02-19T12:01:52.810Z,27.29
2023-02-19T12:02:52.741Z,27.31
2023-02-19T12:03:52.700Z,27.32
2023-02-19T12:04:52.687Z,27.35
2023-02-19T12:05:52.631Z,27.31
2023-02-19T12:06:52.595Z,27.35
2023-02-19T12:07:52.553Z,27.35
2023-02-19T12:08:52.500Z,27.35
2023-02-19T12:09:52.568Z,27.36
2023-02-19T12:10:52.414Z,27.39
2023-02-19T12:11:52.374Z,27.39
2023-02-19T12:12:52.350Z,27.40
2023-02-19T12:13:52.289Z,27.39
2023-02-19T12:14:52.258Z,27.42
2023-02-19T12:15:52.197Z,27.42
2023-02-19T12:16:52.160Z,27.43
2023-02-19T12:17:52.105Z,27.45
2023-02-19T12:18:52.068Z,27.46
2023-02-19T12:19:52.053Z,27.45
2023-02-19T12:20:51.995Z,27.46
2023-02-19T12:21:51.951Z,27.46
2023-02-19T12:22:51.911Z,27.48
2023-02-19T12:23:51.866Z,27.48
2023-02-19T12:24:51.842Z,27.52
2023-02-19T12:25:51.793Z,27.50
2023-02-19T12:26:51.758Z,27.49
2023-02-19T12:27:51.702Z,27.49
2023-02-19T12:28:51.678Z,27.50
2023-02-19T12:29:51.633Z,27.50
2023-02-19T12:30:51.596Z,27.52
2023-02-19T12:31:51.574Z,27.53
2023-02-19T12:32:51.510Z,27.52
2023-02-19T12:33:51.462Z,27.53
2023-02-19T12:34:51.441Z,27.53
2023-02-19T12:35:51.388Z,27.54
2023-02-19T12:36:51.358Z,27.54
2023-02-19T12:37:51.312Z,27.54
2023-02-19T12:38:51.274Z,27.54
2023-02-19T12:39:51.249Z,27.56
2023-02-19T14:40:46.972Z,27.50
2023-02-19T14:41:46.929Z,27.48
2023-02-19T14:42:46.906Z,27.48
2023-02-19T14:43:46.864Z,27.48
2023-02-19T14:44:46.836Z,27.45
2023-02-19T14:45:46.800Z,27.43
2023-02-19T14:46:46.797Z,27.42
2023-02-19T14:47:46.748Z,27.43
2023-02-19T14:48:46.737Z,27.42
2023-02-19T14:49:46.709Z,27.45
2023-02-19T14:50:46.672Z,27.42
2023-02-19T14:51:46.683Z,27.40
2023-02-19T14:52:46.637Z,27.42
2023-02-19T14:53:46.642Z,27.40
2023-02-19T14:54:46.618Z,27.38
2023-02-19T14:55:46.540Z,27.38
2023-02-19T14:56:46.515Z,27.36
2023-02-19T14:57:46.477Z,27.35
2023-02-19T14:58:46.430Z,27.38
2023-02-19T14:59:46.363Z,27.38
2023-02-19T15:00:46.327Z,27.33
2023-02-19T15:01:46.342Z,27.33
2023-02-19T15:02:46.247Z,27.35
2023-02-19T15:03:46.214Z,27.32
2023-02-19T15:04:46.226Z,27.32
2023-02-19T15:05:46.150Z,27.28
2023-02-19T15:06:46.090Z,27.28
2023-02-19T15:07:46.051Z,27.28
2023-02-19T15:08:46.023Z,27.26
2023-02-19T15:09:45.984Z,27.25
2023-02-19T15:10:45.925Z,27.25
2023-02-19T15:11:45.889Z,27.24
2023-02-19T15:12:45.854Z,27.21
2023-02-19T15:13:45.822Z,27.22
2023-02-19T15:14:45.776Z,27.21
2023-02-19T15:15:45.743Z,27.18
2023-02-19T15:16:45.687Z,27.18
2023-02-19T15:17:45.687Z,27.16
2023-02-19T15:18:45.619Z,27.16
2023-02-19T15:19:45.584Z,27.18
2023-02-19T15:20:45.556Z,27.13
2023-02-19T15:21:45.513Z,27.13
2023-02-19T15:22:45.491Z,27.13
2023-02-19T15:23:45.456Z,27.11
2023-02-19T15:24:48.176Z,27.11
2023-02-19T15:25:45.368Z,27.11
2023-02-19T15:26:45.336Z,27.09
2023-02-19T15:27:45.292Z,27.08
2023-02-19T15:28:45.273Z,27.09
2023-02-19T15:29:45.213Z,27.08
2023-02-19T15:30:45.183Z,27.06
2023-02-19T15:31:45.254Z,27.06
2023-02-19T15:32:45.114Z,27.02
2023-02-19T15:33:45.074Z,27.04
2023-02-19T15:34:45.039Z,27.02
2023-02-19T15:35:45.004Z,27.02
2023-02-19T15:36:44.974Z,27.02
2023-02-19T15:37:44.942Z,26.99
2023-02-19T15:38:44.910Z,26.98
2023-02-19T15:39:44.878Z,26.98
2023-02-19T15:40:44.833Z,26.97
2023-02-19T15:41:44.820Z,26.94
2023-02-19T15:42:44.774Z,26.94
2023-02-19T15:43:44.727Z,26.94
2023-02-19T15:44:44.685Z,26.95
2023-02-19T15:45:44.655Z,26.91
2023-02-19T15:46:44.677Z,26.91
2023-02-19T15:47:44.585Z,26.88
2023-02-19T15:48:44.553Z,26.88
2023-02-19T15:49:44.521Z,26.90
2023-02-19T15:50:44.492Z,26.88
2023-02-19T15:51:44.471Z,26.87
2023-02-19T15:52:44.422Z,26.88
2023-02-19T15:53:44.389Z,26.87
2023-02-19T15:54:44.359Z,26.83
2023-02-19T15:55:44.335Z,26.83
2023-02-19T15:56:44.299Z,26.80
2023-02-19T15:57:44.260Z,26.78
2023-02-19T15:58:44.246Z,26.78
2023-02-19T15:59:44.196Z,26.77
2023-02-19T16:00:44.166Z,26.78
2023-02-19T16:01:44.210Z,26.77
2023-02-19T16:02:44.104Z,26.78
2023-02-19T16:03:44.065Z,26.76
2023-02-19T16:04:44.034Z,26.74
2023-02-19T16:05:43.994Z,26.71
2023-02-19T16:06:43.960Z,26.71
2023-02-19T16:07:43.942Z,26.68
2023-02-19T16:08:43.889Z,26.66
2023-02-19T16:09:43.870Z,26.68
2023-02-19T16:10:43.836Z,26.67
2023-02-19T16:11:43.802Z,26.66
2023-02-19T16:12:43.773Z,26.63
2023-02-19T16:13:43.739Z,26.61
2023-02-19T16:14:43.707Z,26.63
2023-02-19T16:15:43.674Z,26.63
2023-02-19T16:16:43.648Z,26.61
2023-02-19T16:17:43.627Z,26.60
2023-02-19T16:18:43.590Z,26.60
2023-02-19T16:19:43.563Z,26.57
2023-02-19T16:20:43.521Z,26.60
2023-02-19T16:21:43.486Z,26.57
2023-02-19T16:22:43.473Z,26.56
2023-02-19T16:23:43.439Z,26.57
2023-02-19T16:24:43.403Z,26.56
2023-02-19T16:25:43.376Z,26.54
2023-02-19T16:26:43.342Z,26.51
2023-02-19T16:27:43.314Z,26.50
2023-02-19T16:28:43.279Z,26.50
2023-02-19T16:29:43.246Z,26.49
2023-02-19T16:30:43.227Z,26.46
2023-02-19T16:31:43.268Z,26.47
2023-02-19T16:32:43.174Z,26.44
2023-02-19T16:33:43.143Z,26.44
2023-02-19T16:34:43.124Z,26.46
2023-02-19T16:35:43.088Z,26.43
2023-02-19T16:36:43.064Z,26.43
2023-02-19T16:37:43.047Z,26.42
2023-02-19T16:38:43.014Z,26.40
2023-02-19T16:39:42.981Z,26.39
2023-02-19T16:40:42.965Z,26.39
2023-02-19T16:41:42.935Z,26.36
2023-02-19T16:42:42.930Z,26.35
2023-02-19T16:43:42.922Z,26.35
2023-02-19T16:44:42.901Z,26.32
2023-02-19T16:45:42.908Z,26.35
2023-02-19T16:46:42.895Z,26.35
2023-02-19T16:47:42.868Z,26.30
2023-02-19T16:48:42.860Z,26.30
2023-02-19T16:49:42.844Z,26.30
2023-02-19T16:50:42.839Z,26.30
2023-02-19T16:51:42.828Z,26.29
2023-02-19T16:52:42.819Z,26.23
2023-02-19T16:53:42.802Z,26.26
2023-02-19T16:54:42.784Z,26.25
2023-02-19T16:55:42.777Z,26.25
2023-02-19T16:56:42.775Z,26.22
2023-02-19T16:57:42.740Z,26.22
2023-02-19T16:58:42.722Z,26.22
2023-02-19T16:59:42.726Z,26.20
2023-02-19T17:00:42.711Z,26.18
2023-02-19T17:01:42.683Z,26.18
2023-02-19T17:02:42.676Z,26.19
2023-02-19T17:03:42.710Z,26.19
2023-02-19T17:04:42.663Z,26.18
2023-02-19T17:05:42.630Z,26.16
2023-02-19T17:06:42.603Z,26.16
2023-02-19T17:07:42.581Z,26.15
2023-02-19T17:08:42.557Z,26.12
2023-02-19T17:09:42.549Z,26.12
2023-02-19T17:10:42.511Z,26.12
2023-02-19T17:11:42.488Z,26.11
2023-02-19T17:12:42.472Z,26.11
2023-02-19T17:13:42.455Z,26.11
2023-02-19T17:14:42.422Z,26.09
2023-02-19T17:15:42.409Z,26.08
2023-02-19T17:16:42.412Z,26.08
2023-02-19T17:17:42.400Z,26.06
2023-02-19T17:18:42.343Z,26.05
2023-02-19T17:19:42.333Z,26.06
2023-02-19T17:20:42.296Z,26.06
2023-02-19T17:21:42.283Z,26.03
2023-02-19T17:22:42.250Z,26.03
2023-02-19T17:23:42.250Z,26.02
2023-02-19T17:24:42.202Z,26.02
2023-02-19T17:25:42.190Z,26.02
2023-02-19T17:26:42.167Z,26.01
2023-02-19T17:27:42.152Z,26.02
2023-02-19T17:28:42.137Z,25.98
2023-02-19T17:29:42.120Z,25.95
2023-02-19T17:30:42.115Z,25.96
2023-02-19T17:31:42.165Z,25.95
2023-02-19T17:32:42.056Z,25.96
2023-02-19T17:33:42.032Z,25.95
2023-02-19T17:34:42.012Z,25.94
2023-02-19T17:35:42.011Z,25.92
2023-02-19T17:36:41.978Z,25.94
2023-02-19T17:37:41.947Z,25.92
2023-02-19T17:38:41.930Z,25.94
2023-02-19T17:39:41.917Z,25.94
2023-02-19T17:40:41.890Z,25.92
2023-02-19T17:41:41.853Z,25.92
2023-02-19T17:50:41.640Z,25.89
2023-02-19T17:51:41.640Z,25.89
2023-02-19T17:52:41.597Z,25.87
2023-02-19T17:53:41.680Z,25.87
2023-02-19T17:54:41.714Z,25.87
2023-02-19T17:55:41.531Z,25.87
2023-02-19T17:56:41.510Z,25.87
2023-02-19T17:57:41.496Z,25.83
2023-02-19T17:58:41.461Z,25.84
2023-02-19T17:59:41.450Z,25.83
2023-02-19T18:00:41.423Z,25.83
2023-02-19T18:01:41.584Z,25.84
2023-02-19T18:02:41.372Z,25.83
2023-02-19T18:03:41.402Z,25.81
2023-02-19T18:04:41.337Z,25.81
2023-02-19T18:05:41.312Z,25.80
2023-02-19T18:06:41.327Z,25.78
2023-02-19T18:07:41.306Z,25.75
2023-02-19T18:08:41.274Z,25.78
2023-02-19T18:09:41.249Z,25.78
2023-02-19T18:10:41.267Z,25.78
2023-02-19T21:52:37.855Z,25.18
2023-02-19T21:53:37.841Z,25.16
2023-02-19T21:54:37.826Z,25.19
2023-02-19T21:55:38.646Z,25.18
2023-02-19T21:56:37.794Z,25.15
2023-02-19T21:57:37.774Z,25.13
2023-02-19T21:58:37.774Z,25.16
2023-02-19T21:59:37.740Z,25.15
2023-02-19T22:00:37.767Z,25.16
2023-02-19T22:01:37.711Z,25.15
2023-02-19T22:02:37.754Z,25.16
2023-02-19T22:03:37.685Z,25.15
2023-02-19T22:04:37.690Z,25.12
2023-02-19T22:05:37.649Z,25.13
2023-02-19T22:06:37.636Z,25.12
2023-02-19T22:07:37.637Z,25.10
2023-02-19T22:08:37.612Z,25.10
2023-02-19T22:09:37.606Z,25.12
2023-02-19T22:10:37.569Z,25.13
2023-02-19T22:11:37.550Z,25.13
2023-02-19T22:12:37.520Z,25.10
2023-02-19T22:13:37.512Z,25.13
2023-02-19T22:14:37.477Z,25.12
2023-02-19T22:15:37.460Z,25.12
2023-02-19T22:16:37.518Z,25.12
2023-02-19T22:17:37.432Z,25.10
2023-02-19T22:18:37.413Z,25.12
2023-02-19T22:19:37.398Z,25.12
2023-02-19T22:20:37.389Z,25.10
2023-02-19T22:21:37.363Z,25.10
2023-02-19T22:22:37.350Z,25.13
2023-02-19T22:23:37.335Z,25.12
2023-02-19T22:24:37.318Z,25.12
2023-02-19T22:25:37.317Z,25.09
2023-02-19T22:26:37.287Z,25.10
2023-02-19T22:27:37.258Z,25.09
2023-02-19T22:28:37.238Z,25.08
2023-02-19T22:29:37.227Z,25.09
2023-02-19T22:30:37.265Z,25.08
2023-02-19T22:31:37.330Z,25.09
2023-02-19T22:32:37.339Z,25.09
2023-02-19T22:33:37.162Z,25.09
2023-02-19T22:34:37.144Z,25.06
2023-02-19T22:35:37.132Z,25.09
2023-02-19T22:36:37.142Z,25.10
2023-02-19T22:37:37.098Z,25.10
2023-02-19T22:38:37.087Z,25.09
2023-02-19T22:39:37.075Z,25.05
2023-02-19T22:40:37.079Z,25.06
2023-02-19T22:41:37.056Z,25.08
2023-02-19T22:42:37.035Z,25.06
2023-02-19T22:43:37.027Z,25.09
2023-02-19T22:44:37.015Z,25.08
2023-02-19T22:45:37.028Z,25.06
2023-02-19T22:46:36.995Z,25.06
2023-02-19T22:47:36.975Z,25.05
2023-02-19T22:48:36.966Z,25.06
2023-02-19T22:49:36.940Z,25.05
2023-02-19T22:50:36.932Z,25.05
2023-02-19T22:51:36.920Z,25.05
2023-02-19T22:52:36.903Z,25.05
2023-02-19T22:53:36.898Z,25.03
2023-02-19T22:54:36.889Z,25.03
2023-02-19T22:55:36.881Z,25.03
2023-02-19T22:56:36.843Z,25.03
2023-02-19T22:57:36.824Z,25.02
2023-02-19T22:58:36.826Z,25.02
2023-02-19T22:59:36.831Z,25.01
2023-02-19T23:00:36.792Z,25.02
2023-02-19T23:01:36.783Z,25.02
2023-02-19T23:02:36.767Z,25.05
2023-02-19T23:03:36.754Z,25.02
2023-02-19T23:04:36.761Z,25.02
2023-02-19T23:05:36.735Z,25.02
2023-02-19T23:06:36.733Z,25.01
2023-02-19T23:07:36.712Z,25.01
2023-02-19T23:08:36.707Z,25.01
2023-02-19T23:09:36.696Z,25.01
2023-02-19T23:10:36.679Z,25.01
2023-02-19T23:11:36.677Z,25.01
2023-02-19T23:12:36.669Z,24.96
2023-02-19T23:13:36.655Z,24.98
2023-02-19T23:14:36.641Z,24.98
2023-02-19T23:15:36.627Z,24.99
2023-02-19T23:16:36.716Z,24.96
2023-02-19T23:17:36.620Z,24.98
2023-02-19T23:18:36.620Z,24.99
2023-02-19T23:19:36.600Z,24.98
2023-02-19T23:20:36.599Z,24.99
2023-02-19T23:21:36.594Z,24.96
2023-02-19T23:22:36.582Z,25.01
2023-02-19T23:23:36.579Z,24.98
2023-02-19T23:24:36.559Z,24.96
2023-02-19T23:25:36.554Z,24.96
2023-02-19T23:26:36.532Z,24.98
2023-02-19T23:27:36.524Z,24.96
2023-02-19T23:28:36.515Z,24.93
2023-02-19T23:29:36.512Z,24.95
2023-02-19T23:30:36.558Z,24.95
2023-02-19T23:31:36.568Z,24.96
2023-02-19T23:32:36.479Z,24.95
2023-02-19T23:33:36.478Z,24.96
2023-02-19T23:34:36.451Z,24.96
2023-02-19T23:35:36.447Z,24.95
2023-02-19T23:36:36.430Z,24.95
2023-02-19T23:37:36.415Z,24.95
2023-02-19T23:38:36.402Z,24.95
2023-02-19T23:39:36.383Z,24.93
2023-02-19T23:40:36.383Z,24.95
2023-02-19T23:41:36.376Z,24.96
2023-02-19T23:42:36.369Z,24.96
2023-02-19T23:43:36.355Z,24.92
2023-02-19T23:44:36.352Z,24.93
2023-02-19T23:45:36.352Z,24.93
2023-02-19T23:46:36.320Z,24.93
2023-02-19T23:47:36.329Z,24.93
2023-02-19T23:48:36.296Z,24.91
2023-02-19T23:49:36.345Z,24.91
2023-02-19T23:50:36.287Z,24.91
2023-02-19T23:51:36.263Z,24.91
2023-02-19T23:52:36.264Z,24.91
2023-02-19T23:53:36.251Z,24.92
2023-02-19T23:54:36.234Z,24.92
2023-02-19T23:55:36.218Z,24.88
2023-02-19T23:56:36.216Z,24.89
2023-02-19T23:57:36.201Z,24.89
2023-02-19T23:58:36.191Z,24.89
2023-02-19T23:59:36.172Z,24.91
